Time;durP1;ratioP1;P1;durP2;ratioP2;P2;SDS_P1;SDS_P2;PMS_P1;PMS_P2;Temp;Humidity;BMP_temperature;BMP_pressure;BME280_temperature;BME280_humidity;BME280_pressure;Samples;Min_cycle;Max_cycle;Signal;HPM_P1;HPM_P2
2023/05/16 00:01:09;;;;;;;1.57;1.40;;;22.50;73.90;;;;;;5072773;28;20449;-82
2023/05/16 00:03:37;;;;;;;1.40;1.30;;;22.50;73.90;;;;;;5072649;28;20521;-82
2023/05/16 00:06:04;;;;;;;1.57;1.47;;;22.50;74.60;;;;;;5072718;28;20479;-82
2023/05/16 00:08:31;;;;;;;1.80;1.70;;;22.50;73.70;;;;;;5072514;28;20484;-82
2023/05/16 00:10:58;;;;;;;1.50;1.40;;;22.50;74.00;;;;;;5072492;28;20976;-82
2023/05/16 00:13:25;;;;;;;1.67;1.40;;;22.50;74.00;;;;;;5072707;28;20443;-83
2023/05/16 00:15:52;;;;;;;1.70;1.50;;;22.50;74.10;;;;;;5072634;28;20452;-81
2023/05/16 00:18:20;;;;;;;1.60;1.50;;;22.50;74.00;;;;;;5072644;28;21028;-81
2023/05/16 00:20:49;;;;;;;1.30;1.20;;;22.50;74.00;;;;;;5072445;28;20447;-82
2023/05/16 00:23:16;;;;;;;1.80;1.70;;;22.50;74.30;;;;;;5072531;28;20480;-82
2023/05/16 00:25:43;;;;;;;1.80;1.70;;;22.50;74.10;;;;;;5072893;28;20540;-82
2023/05/16 00:28:10;;;;;;;1.57;1.47;;;22.50;74.20;;;;;;5072396;28;20490;-82
2023/05/16 00:30:37;;;;;;;1.40;1.30;;;22.50;74.10;;;;;;5072400;28;20489;-82
2023/05/16 00:33:04;;;;;;;1.33;1.23;;;22.40;74.00;;;;;;5072501;28;20441;-82
2023/05/16 00:35:30;;;;;;;1.40;1.30;;;22.40;74.00;;;;;;5072598;28;20788;-82
2023/05/16 00:37:59;;;;;;;1.40;1.30;;;22.40;73.90;;;;;;5072420;28;20436;-82
2023/05/16 00:40:25;;;;;;;1.60;1.50;;;22.50;74.10;;;;;;5072514;28;20441;-82
2023/05/16 00:42:52;;;;;;;1.60;1.50;;;22.40;73.90;;;;;;5074067;28;20934;-81
2023/05/16 00:45:19;;;;;;;3.23;1.50;;;22.40;74.10;;;;;;5075938;28;20480;-82
2023/05/16 00:47:46;;;;;;;1.17;1.07;;;22.40;75.10;;;;;;5075789;28;20473;-82
2023/05/16 00:50:13;;;;;;;1.37;1.27;;;22.40;73.80;;;;;;5075892;28;20530;-81
2023/05/16 00:52:40;;;;;;;1.47;1.37;;;22.40;73.80;;;;;;5075852;28;20448;-81
2023/05/16 00:55:10;;;;;;;1.43;1.33;;;22.40;73.60;;;;;;5075820;28;20446;-81
2023/05/16 00:57:37;;;;;;;1.50;1.40;;;22.40;73.60;;;;;;5075661;28;20437;-82
2023/05/16 01:00:06;;;;;;;1.50;1.40;;;22.40;73.50;;;;;;5075602;28;20441;-82
2023/05/16 01:02:35;;;;;;;1.30;1.20;;;22.40;73.60;;;;;;5075517;28;20436;-82
2023/05/16 01:05:04;;;;;;;1.30;1.20;;;22.40;73.30;;;;;;5075678;28;20446;-82
2023/05/16 01:07:31;;;;;;;1.20;1.00;;;22.40;73.30;;;;;;5075536;28;20442;-82
2023/05/16 01:09:58;;;;;;;1.40;1.30;;;22.40;73.10;;;;;;5075204;28;20475;-81
2023/05/16 01:12:33;;;;;;;1.20;1.10;;;22.40;73.20;;;;;;5075478;28;20534;-81
2023/05/16 01:15:07;;;;;;;1.30;1.20;;;22.40;72.90;;;;;;5075490;28;20454;-81
2023/05/16 01:17:42;;;;;;;1.40;1.10;;;22.40;72.70;;;;;;5075360;28;20437;-82
2023/05/16 01:20:17;;;;;;;1.33;1.23;;;22.40;72.80;;;;;;5075327;28;20464;-82
2023/05/16 01:23:00;;;;;;;1.50;1.40;;;22.40;72.80;;;;;;5075177;28;20455;-82
2023/05/16 01:25:39;;;;;;;1.47;1.37;;;22.40;72.70;;;;;;5075236;28;20983;-83
2023/05/16 01:28:09;;;;;;;1.30;1.20;;;22.40;72.60;;;;;;5075065;28;20495;-83
2023/05/16 01:30:40;;;;;;;1.80;1.70;;;22.40;72.70;;;;;;5074958;28;20444;-83
2023/05/16 01:33:07;;;;;;;1.10;1.00;;;22.40;72.80;;;;;;5075104;28;20450;-82
2023/05/16 01:35:35;;;;;;;1.77;1.20;;;22.40;72.70;;;;;;5075161;28;20789;-83
2023/05/16 01:38:11;;;;;;;1.90;1.37;;;22.40;72.60;;;;;;5075261;28;20449;-83
2023/05/16 01:40:45;;;;;;;1.40;1.30;;;22.30;72.60;;;;;;5074855;28;20612;-83
2023/05/16 01:43:19;;;;;;;1.50;1.40;;;22.40;72.80;;;;;;5074687;28;20520;-83
2023/05/16 01:45:51;;;;;;;1.40;1.30;;;22.40;72.70;;;;;;5074925;28;20441;-82
2023/05/16 01:48:22;;;;;;;1.13;0.90;;;22.30;72.60;;;;;;5074785;28;20572;-82
2023/05/16 01:50:54;;;;;;;1.30;1.20;;;22.30;72.50;;;;;;5074726;28;20532;-82
2023/05/16 01:53:25;;;;;;;1.20;1.10;;;22.30;72.60;;;;;;5074288;28;20469;-82
2023/05/16 01:55:54;;;;;;;1.40;1.30;;;22.30;72.60;;;;;;5074599;28;20955;-83
2023/05/16 01:58:26;;;;;;;1.60;1.50;;;22.30;72.60;;;;;;5074442;28;20464;-83
2023/05/16 02:00:53;;;;;;;1.20;1.10;;;22.30;72.60;;;;;;5074488;28;20525;-82
2023/05/16 02:03:20;;;;;;;1.50;1.40;;;22.30;72.60;;;;;;5074461;28;20446;-82
2023/05/16 02:05:46;;;;;;;1.30;1.00;;;22.30;72.60;;;;;;5074380;28;20630;-82
2023/05/16 02:08:14;;;;;;;1.30;1.10;;;22.30;72.70;;;;;;5074194;28;20484;-82
2023/05/16 02:10:40;;;;;;;1.10;1.00;;;22.30;72.70;;;;;;5073891;28;21030;-89
2023/05/16 02:13:07;;;;;;;1.33;1.23;;;22.30;72.60;;;;;;5074284;28;20482;-83
2023/05/16 02:15:35;;;;;;;1.13;1.03;;;22.30;72.70;;;;;;5074184;28;20442;-83
2023/05/16 02:18:02;;;;;;;1.20;1.03;;;22.30;72.70;;;;;;5074132;28;20537;-83
2023/05/16 02:20:29;;;;;;;1.50;1.40;;;22.30;72.60;;;;;;5073780;28;20534;-83
2023/05/16 02:22:56;;;;;;;1.30;1.20;;;22.30;72.60;;;;;;5074046;28;20837;-83
2023/05/16 02:25:24;;;;;;;1.20;1.10;;;22.30;72.70;;;;;;5074057;28;20453;-83
2023/05/16 02:27:51;;;;;;;1.20;1.10;;;22.30;72.60;;;;;;5073855;28;20513;-83
2023/05/16 02:30:18;;;;;;;1.23;1.13;;;22.30;72.70;;;;;;5073912;28;20867;-83
2023/05/16 02:32:47;;;;;;;1.43;1.33;;;22.30;72.70;;;;;;5073871;28;20445;-83
2023/05/16 02:35:14;;;;;;;1.20;1.10;;;22.30;72.60;;;;;;5073862;28;20788;-83
2023/05/16 02:37:42;;;;;;;1.30;1.10;;;22.30;72.70;;;;;;5073791;28;20535;-82
2023/05/16 02:40:10;;;;;;;1.30;1.20;;;22.30;72.60;;;;;;5073514;28;20534;-82
2023/05/16 02:42:37;;;;;;;1.30;1.20;;;22.30;72.60;;;;;;5073791;28;20450;-83
2023/05/16 02:45:04;;;;;;;1.40;1.30;;;22.30;72.60;;;;;;5073689;28;20589;-83
2023/05/16 02:47:31;;;;;;;1.30;1.20;;;22.30;72.60;;;;;;5073583;28;20774;-83
2023/05/16 02:50:00;;;;;;;1.40;1.30;;;22.30;72.60;;;;;;5073412;28;20499;-83
2023/05/16 02:52:26;;;;;;;1.37;1.27;;;22.30;72.60;;;;;;5073538;28;20447;-83
2023/05/16 02:54:53;;;;;;;1.47;1.20;;;22.30;72.60;;;;;;5073456;28;20487;-83
2023/05/16 02:57:20;;;;;;;1.13;1.03;;;22.30;72.60;;;;;;5073467;28;20537;-83
2023/05/16 02:59:47;;;;;;;1.10;1.00;;;22.30;72.70;;;;;;5073372;28;20453;-83
2023/05/16 03:02:14;;;;;;;1.20;1.10;;;22.20;72.60;;;;;;5073405;28;20445;-83
2023/05/16 03:04:40;;;;;;;1.30;1.20;;;22.30;72.70;;;;;;5072781;28;20527;-83
2023/05/16 03:07:09;;;;;;;1.40;1.30;;;22.20;72.50;;;;;;5073467;28;20962;-83
2023/05/16 03:09:35;;;;;;;1.40;1.30;;;22.30;72.60;;;;;;5073043;28;20500;-83
2023/05/16 03:12:02;;;;;;;1.20;1.10;;;22.30;72.60;;;;;;5073322;28;20447;-81
2023/05/16 03:14:29;;;;;;;1.20;1.00;;;22.20;72.60;;;;;;5073130;28;20447;-82
2023/05/16 03:16:56;;;;;;;1.20;1.10;;;22.20;73.40;;;;;;5073222;28;20481;-82
2023/05/16 03:19:23;;;;;;;1.30;1.00;;;22.20;72.50;;;;;;5073332;28;20546;-82
2023/05/16 03:21:49;;;;;;;1.40;1.20;;;22.20;72.50;;;;;;5073140;28;20530;-82
2023/05/16 03:24:18;;;;;;;1.70;1.60;;;22.20;72.50;;;;;;5073277;28;20957;-82
2023/05/16 03:26:44;;;;;;;1.20;1.10;;;22.20;72.50;;;;;;5073120;28;20534;-82
2023/05/16 03:29:11;;;;;;;1.27;1.17;;;22.20;72.50;;;;;;5072885;28;20491;-82
2023/05/16 03:31:38;;;;;;;1.33;1.10;;;22.20;72.50;;;;;;5073151;28;20964;-82
2023/05/16 03:34:05;;;;;;;1.10;1.00;;;22.20;72.50;;;;;;5073028;28;20529;-82
2023/05/16 03:36:32;;;;;;;1.73;1.07;;;22.20;72.40;;;;;;5073081;28;20454;-82
2023/05/16 03:38:58;;;;;;;1.30;1.20;;;22.20;72.40;;;;;;5072909;28;20457;-82
2023/05/16 03:41:26;;;;;;;1.50;1.20;;;22.20;73.30;;;;;;5072965;28;20446;-82
2023/05/16 03:43:53;;;;;;;1.00;0.90;;;22.20;72.50;;;;;;5072948;28;20536;-82
2023/05/16 03:46:20;;;;;;;1.30;1.20;;;22.20;72.40;;;;;;5073324;28;20453;-82
2023/05/16 03:48:47;;;;;;;1.23;1.13;;;22.20;72.40;;;;;;5072916;28;20592;-82
2023/05/16 03:51:14;;;;;;;1.33;1.00;;;22.20;72.40;;;;;;5072774;28;20443;-82
2023/05/16 03:53:40;;;;;;;1.20;1.03;;;22.20;72.50;;;;;;5072907;28;20430;-83
2023/05/16 03:56:07;;;;;;;1.30;1.20;;;22.20;72.50;;;;;;5072977;28;20981;-82
2023/05/16 03:58:36;;;;;;;1.53;1.20;;;22.20;72.50;;;;;;5072734;28;20978;-83
2023/05/16 04:01:03;;;;;;;1.43;1.33;;;22.20;72.40;;;;;;5072644;28;20941;-82
2023/05/16 04:03:32;;;;;;;1.20;1.07;;;22.20;72.50;;;;;;5072891;28;20466;-84
2023/05/16 04:06:00;;;;;;;1.90;1.50;;;22.20;72.50;;;;;;5073194;28;20467;-83
2023/05/16 04:08:26;;;;;;;1.30;1.20;;;22.20;72.40;;;;;;5072668;28;20528;-82
2023/05/16 04:10:53;;;;;;;1.27;1.17;;;22.20;72.50;;;;;;5072465;28;20520;-82
2023/05/16 04:13:20;;;;;;;1.10;0.90;;;22.20;72.50;;;;;;5072729;28;20469;-82
2023/05/16 04:15:48;;;;;;;1.53;1.30;;;22.20;73.30;;;;;;5072837;28;20946;-81
2023/05/16 04:18:15;;;;;;;1.60;1.13;;;22.20;72.50;;;;;;5076583;28;20443;-82
2023/05/16 04:20:43;;;;;;;1.10;1.00;;;22.20;72.50;;;;;;5076217;28;20816;-81
2023/05/16 04:23:11;;;;;;;1.40;1.20;;;22.20;72.50;;;;;;5076404;28;20448;-82
2023/05/16 04:25:38;;;;;;;1.10;1.00;;;22.20;72.40;;;;;;5076397;28;20473;-82
2023/05/16 04:28:05;;;;;;;1.40;1.20;;;22.20;73.20;;;;;;5076168;28;20542;-83
2023/05/16 04:30:32;;;;;;;1.40;1.17;;;22.20;72.40;;;;;;5076066;28;20627;-83
2023/05/16 04:33:00;;;;;;;1.67;0.90;;;22.20;72.50;;;;;;5076333;28;20525;-84
2023/05/16 04:35:28;;;;;;;1.13;1.03;;;22.20;73.30;;;;;;5076272;28;20777;-82
2023/05/16 04:37:54;;;;;;;1.70;1.10;;;22.10;72.30;;;;;;5076115;28;20494;-81
2023/05/16 04:40:21;;;;;;;1.50;1.40;;;22.10;72.20;;;;;;5075967;28;20531;-82
2023/05/16 04:42:49;;;;;;;1.20;1.10;;;22.10;72.20;;;;;;5076037;28;20785;-82
2023/05/16 04:45:16;;;;;;;1.47;1.07;;;22.20;72.30;;;;;;5076055;28;20445;-82
2023/05/16 04:47:43;;;;;;;1.40;1.17;;;22.20;72.40;;;;;;5075912;28;20442;-83
2023/05/16 04:50:12;;;;;;;2.17;1.17;;;22.20;72.30;;;;;;5075769;28;20568;-82
2023/05/16 04:52:38;;;;;;;1.40;1.07;;;22.20;73.20;;;;;;5075926;28;20446;-82
2023/05/16 04:55:06;;;;;;;1.30;0.97;;;22.10;72.20;;;;;;5075784;28;20439;-82
2023/05/16 04:57:33;;;;;;;1.13;1.00;;;22.20;72.30;;;;;;5075684;28;20474;-82
2023/05/16 05:00:00;;;;;;;1.20;1.10;;;22.10;72.10;;;;;;5075553;28;20479;-82
2023/05/16 05:02:27;;;;;;;1.30;1.10;;;22.20;73.10;;;;;;5075764;28;20503;-82
2023/05/16 05:04:54;;;;;;;1.00;0.80;;;22.10;72.20;;;;;;5075729;28;20473;-82
2023/05/16 05:07:22;;;;;;;1.80;1.20;;;22.10;72.20;;;;;;5075553;28;20438;-81
2023/05/16 05:09:50;;;;;;;1.10;1.00;;;22.10;72.20;;;;;;5075118;28;20502;-88
2023/05/16 05:12:17;;;;;;;1.20;1.00;;;22.10;72.10;;;;;;5075450;28;20525;-82
2023/05/16 05:14:44;;;;;;;1.10;0.90;;;22.10;72.20;;;;;;5075369;28;20439;-86
2023/05/16 05:17:11;;;;;;;1.77;1.00;;;22.10;72.10;;;;;;5075544;28;20452;-82
2023/05/16 05:19:37;;;;;;;1.93;1.30;;;22.10;72.10;;;;;;5075320;28;20450;-82
2023/05/16 05:22:05;;;;;;;1.50;1.10;;;22.30;72.40;;;;;;5075385;28;20454;-83
2023/05/16 05:24:33;;;;;;;1.30;1.00;;;22.10;72.10;;;;;;5075274;28;20778;-81
2023/05/16 05:27:00;;;;;;;1.77;1.30;;;22.10;72.20;;;;;;5075303;28;20528;-81
2023/05/16 05:29:27;;;;;;;1.40;1.10;;;22.10;72.20;;;;;;5074459;28;20483;-82
2023/05/16 05:31:54;;;;;;;1.37;1.27;;;22.10;72.10;;;;;;5075053;28;20485;-88
2023/05/16 05:34:21;;;;;;;1.20;0.93;;;22.10;72.20;;;;;;5075085;28;20473;-88
2023/05/16 05:36:48;;;;;;;2.40;1.03;;;22.10;72.20;;;;;;5074979;28;20442;-83
2023/05/16 05:39:15;;;;;;;1.83;1.20;;;22.10;72.30;;;;;;5074999;28;20435;-83
2023/05/16 05:41:43;;;;;;;1.10;0.93;;;22.10;72.20;;;;;;5074986;28;20445;-83
2023/05/16 05:44:10;;;;;;;1.20;1.00;;;22.10;72.20;;;;;;5074776;28;20540;-83
2023/05/16 05:46:37;;;;;;;1.80;0.97;;;22.10;72.20;;;;;;5074816;28;20497;-82
2023/05/16 05:49:04;;;;;;;1.73;1.10;;;22.10;72.00;;;;;;5075142;28;20521;-82
2023/05/16 05:51:31;;;;;;;1.20;1.00;;;22.10;72.10;;;;;;5075083;28;20449;-83
2023/05/16 05:53:59;;;;;;;2.07;1.20;;;22.10;72.10;;;;;;5074809;28;20435;-81
2023/05/16 05:56:26;;;;;;;1.73;1.20;;;22.10;72.10;;;;;;5074659;28;20950;-82
2023/05/16 05:58:54;;;;;;;2.00;1.33;;;22.10;72.10;;;;;;5074394;28;20485;-88
2023/05/16 06:01:21;;;;;;;1.50;1.00;;;22.20;72.20;;;;;;5074392;28;20524;-83
2023/05/16 06:03:48;;;;;;;2.23;1.00;;;22.10;72.00;;;;;;5074400;28;20516;-81
2023/05/16 06:06:15;;;;;;;1.17;0.97;;;22.10;72.00;;;;;;5074337;28;20442;-83
2023/05/16 06:08:41;;;;;;;1.50;1.00;;;22.10;72.10;;;;;;5074359;28;20951;-83
2023/05/16 06:11:08;;;;;;;1.70;0.93;;;22.10;72.00;;;;;;5074127;28;20490;-83
2023/05/16 06:13:35;;;;;;;1.50;0.83;;;22.10;72.00;;;;;;5074287;28;20452;-83
2023/05/16 06:16:04;;;;;;;1.73;1.03;;;22.10;72.10;;;;;;5074216;28;20884;-83
2023/05/16 06:18:31;;;;;;;1.57;0.90;;;22.10;72.00;;;;;;5074253;28;20808;-83
2023/05/16 06:20:58;;;;;;;1.53;1.20;;;22.10;72.00;;;;;;5073951;28;20449;-81
2023/05/16 06:23:24;;;;;;;1.20;1.00;;;22.10;72.00;;;;;;5074016;28;20477;-81
2023/05/16 06:25:51;;;;;;;1.93;1.20;;;22.10;72.00;;;;;;5073965;28;20449;-81
2023/05/16 06:28:18;;;;;;;1.77;1.20;;;22.10;72.00;;;;;;5073902;28;20548;-81
2023/05/16 06:30:46;;;;;;;1.10;0.80;;;22.10;72.00;;;;;;5073746;28;20531;-81
2023/05/16 06:33:15;;;;;;;1.20;1.00;;;22.10;71.90;;;;;;5073945;28;20449;-82
2023/05/16 06:35:41;;;;;;;3.17;1.20;;;22.10;71.90;;;;;;5073786;28;20441;-82
2023/05/16 06:38:08;;;;;;;1.50;0.80;;;22.10;72.00;;;;;;5073749;28;20481;-82
2023/05/16 06:40:36;;;;;;;1.20;0.90;;;22.10;72.00;;;;;;5072616;28;20525;-83
2023/05/16 06:43:03;;;;;;;1.10;0.80;;;22.30;73.10;;;;;;5073723;28;20527;-83
2023/05/16 06:45:30;;;;;;;1.20;0.90;;;22.10;71.90;;;;;;5073777;28;20941;-83
2023/05/16 06:47:57;;;;;;;1.10;0.80;;;22.10;72.00;;;;;;5073522;28;21017;-82
2023/05/16 06:50:25;;;;;;;1.93;0.90;;;22.10;71.90;;;;;;5073377;28;20496;-89
2023/05/16 06:52:52;;;;;;;1.63;1.00;;;22.20;71.90;;;;;;5073545;28;20464;-83
2023/05/16 06:55:19;;;;;;;1.30;1.03;;;22.20;71.90;;;;;;5073527;28;20444;-83
2023/05/16 06:57:46;;;;;;;1.73;1.00;;;22.20;71.90;;;;;;5073533;28;20793;-83
2023/05/16 07:00:14;;;;;;;2.23;1.33;;;22.10;71.60;;;;;;5073257;28;20446;-83
2023/05/16 07:02:41;;;;;;;1.83;1.27;;;22.20;71.80;;;;;;5073424;28;20444;-83
2023/05/16 07:05:09;;;;;;;1.20;0.90;;;22.20;71.50;;;;;;5073378;28;20441;-83
2023/05/16 07:07:37;;;;;;;1.50;0.90;;;22.20;71.50;;;;;;5073268;28;20478;-82
2023/05/16 07:10:04;;;;;;;1.13;1.00;;;22.20;72.20;;;;;;5073096;28;20574;-86
2023/05/16 07:12:31;;;;;;;1.47;1.00;;;22.20;71.40;;;;;;5073294;28;20524;-83
2023/05/16 07:14:58;;;;;;;1.30;1.03;;;22.20;71.30;;;;;;5073296;28;20495;-83
2023/05/16 07:17:25;;;;;;;1.20;1.00;;;22.20;71.20;;;;;;5073221;28;20442;-82
2023/05/16 07:19:52;;;;;;;1.83;0.90;;;22.20;71.20;;;;;;5073152;28;20863;-85
2023/05/16 07:22:18;;;;;;;1.23;0.80;;;22.20;71.10;;;;;;5073215;28;20526;-83
2023/05/16 07:24:47;;;;;;;1.10;0.70;;;22.20;71.00;;;;;;5073141;28;20448;-83
2023/05/16 07:27:13;;;;;;;1.30;0.90;;;22.20;71.00;;;;;;5073114;28;20449;-83
2023/05/16 07:29:41;;;;;;;1.10;0.77;;;22.20;70.90;;;;;;5072880;28;20454;-83
2023/05/16 07:32:08;;;;;;;1.50;0.93;;;22.30;71.00;;;;;;5073129;28;20869;-83
2023/05/16 07:34:35;;;;;;;1.10;0.90;;;22.30;70.90;;;;;;5073125;28;20437;-83
2023/05/16 07:37:02;;;;;;;1.80;0.90;;;22.30;70.70;;;;;;5073035;28;20528;-83
2023/05/16 07:39:29;;;;;;;2.03;1.00;;;22.30;70.50;;;;;;5072880;28;20929;-83
2023/05/16 07:41:57;;;;;;;1.53;1.10;;;22.30;70.40;;;;;;5072909;28;20539;-82
2023/05/16 07:44:24;;;;;;;1.20;1.03;;;22.30;70.40;;;;;;5073059;28;20781;-82
2023/05/16 07:46:51;;;;;;;1.40;0.80;;;22.30;70.30;;;;;;5073059;28;20486;-82
2023/05/16 07:49:17;;;;;;;2.13;0.80;;;22.30;70.30;;;;;;5072996;28;20530;-82
2023/05/16 07:51:44;;;;;;;1.40;0.87;;;22.30;70.30;;;;;;5074618;28;20909;-82
2023/05/16 07:54:11;;;;;;;1.50;0.80;;;22.30;70.20;;;;;;5076889;28;20445;-81
2023/05/16 07:56:38;;;;;;;1.97;1.10;;;22.30;70.00;;;;;;5076864;28;20473;-81
2023/05/16 07:59:06;;;;;;;1.30;0.70;;;22.30;69.90;;;;;;5076777;28;20459;-83
2023/05/16 08:01:33;;;;;;;1.40;1.00;;;22.30;69.60;;;;;;5076750;28;20435;-82
2023/05/16 08:04:00;;;;;;;1.10;0.93;;;22.30;69.80;;;;;;5076802;28;20530;-82
2023/05/16 08:06:28;;;;;;;1.77;1.00;;;22.30;69.80;;;;;;5076592;28;20883;-82
2023/05/16 08:08:55;;;;;;;2.17;0.90;;;22.30;69.50;;;;;;5076650;28;20541;-82
2023/05/16 08:11:22;;;;;;;1.10;0.80;;;22.30;69.40;;;;;;5076309;28;20501;-83
2023/05/16 08:13:49;;;;;;;1.27;0.97;;;22.30;69.30;;;;;;5076546;28;21018;-83
2023/05/16 08:16:17;;;;;;;2.50;1.10;;;22.30;69.40;;;;;;5076392;28;20775;-83
2023/05/16 08:18:44;;;;;;;3.00;1.00;;;22.40;69.30;;;;;;5076578;28;20459;-86
2023/05/16 08:21:12;;;;;;;1.80;0.97;;;22.40;69.20;;;;;;5076187;28;20929;-83
2023/05/16 08:23:40;;;;;;;1.20;0.77;;;22.30;69.80;;;;;;5076301;28;20474;-83
2023/05/16 08:26:06;;;;;;;1.20;0.83;;;22.30;69.00;;;;;;5076332;28;20449;-83
2023/05/16 08:28:33;;;;;;;1.30;0.93;;;22.30;69.00;;;;;;5076262;28;20515;-83
2023/05/16 08:31:00;;;;;;;1.20;0.90;;;22.40;69.00;;;;;;5076039;28;20489;-83
2023/05/16 08:33:28;;;;;;;1.10;0.70;;;22.40;69.00;;;;;;5076235;28;20534;-82
2023/05/16 08:35:55;;;;;;;1.37;0.90;;;22.40;68.80;;;;;;5076214;28;20449;-89
2023/05/16 08:38:22;;;;;;;1.03;0.77;;;22.40;69.00;;;;;;5076206;28;20848;-82
2023/05/16 08:40:49;;;;;;;1.20;0.87;;;22.40;68.90;;;;;;5075937;28;20444;-82
2023/05/16 08:43:16;;;;;;;1.07;0.70;;;22.40;68.90;;;;;;5076002;28;20433;-82
2023/05/16 08:45:43;;;;;;;1.73;1.23;;;22.40;69.20;;;;;;5076010;28;20443;-82
2023/05/16 08:48:11;;;;;;;1.03;0.80;;;22.40;69.50;;;;;;5075934;28;20438;-82
2023/05/16 08:50:41;;;;;;;1.20;0.80;;;22.40;69.60;;;;;;5075778;28;20536;-82
2023/05/16 08:53:10;;;;;;;2.97;1.10;;;22.40;69.40;;;;;;5075911;28;20443;-89
2023/05/16 08:55:39;;;;;;;1.90;0.80;;;22.40;69.80;;;;;;5075827;28;20444;-82
2023/05/16 08:58:06;;;;;;;1.20;0.93;;;22.40;69.80;;;;;;5075542;28;20494;-82
2023/05/16 09:00:33;;;;;;;1.53;0.90;;;22.40;70.00;;;;;;5075468;28;20441;-89
2023/05/16 09:03:00;;;;;;;1.93;1.00;;;22.40;70.90;;;;;;5074431;28;20461;-82
2023/05/16 09:05:29;;;;;;;3.00;1.00;;;22.40;70.10;;;;;;5075585;28;20445;-82
2023/05/16 09:07:58;;;;;;;2.27;1.20;;;22.40;70.10;;;;;;5075526;28;20797;-82
2023/05/16 09:10:25;;;;;;;1.30;1.00;;;22.50;70.50;;;;;;5075117;28;20866;-82
2023/05/16 09:12:52;;;;;;;1.10;0.80;;;22.40;70.30;;;;;;5075542;28;20454;-88
2023/05/16 09:15:20;;;;;;;2.53;0.90;;;22.40;70.40;;;;;;5075372;28;20936;-82
2023/05/16 09:17:47;;;;;;;1.83;1.00;;;22.40;70.50;;;;;;5075403;28;20443;-82
2023/05/16 09:20:16;;;;;;;1.00;0.80;;;22.40;70.30;;;;;;5075274;28;20438;-83
2023/05/16 09:22:52;;;;;;;1.37;0.97;;;22.50;70.70;;;;;;5075346;28;20434;-82
2023/05/16 09:25:21;;;;;;;1.10;0.70;;;22.50;70.60;;;;;;5075341;28;20438;-82
2023/05/16 09:27:48;;;;;;;1.30;0.80;;;22.40;70.70;;;;;;5075067;28;20458;-83
2023/05/16 09:30:16;;;;;;;1.10;0.80;;;22.40;70.20;;;;;;5075025;28;20438;-82
2023/05/16 09:32:46;;;;;;;1.00;0.80;;;22.40;70.60;;;;;;5075170;28;20922;-82
2023/05/16 09:35:16;;;;;;;1.30;0.80;;;22.50;71.00;;;;;;5075055;28;20438;-82
2023/05/16 09:37:46;;;;;;;1.60;0.90;;;22.50;70.80;;;;;;5075361;28;20434;-83
2023/05/16 09:40:13;;;;;;;1.00;0.70;;;22.50;70.60;;;;;;5074747;28;20441;-82
2023/05/16 09:42:42;;;;;;;1.23;0.90;;;22.50;70.60;;;;;;5074957;28;20452;-83
2023/05/16 09:45:12;;;;;;;1.77;0.80;;;22.50;70.70;;;;;;5074932;28;20447;-82
2023/05/16 09:47:45;;;;;;;1.20;0.80;;;22.50;70.60;;;;;;5074940;28;20442;-82
2023/05/16 09:50:13;;;;;;;1.30;1.00;;;22.50;70.60;;;;;;5074662;28;20445;-82
2023/05/16 09:52:40;;;;;;;1.10;0.93;;;22.50;70.80;;;;;;5074786;28;20442;-83
2023/05/16 09:55:07;;;;;;;1.30;0.80;;;22.50;70.50;;;;;;5074749;28;20446;-83
2023/05/16 09:57:37;;;;;;;1.10;0.97;;;22.50;70.50;;;;;;5074595;28;20539;-82
2023/05/16 10:00:10;;;;;;;1.20;0.80;;;22.50;70.40;;;;;;5074482;28;20444;-83
2023/05/16 10:02:38;;;;;;;1.57;0.90;;;22.50;70.70;;;;;;5074619;28;20450;-82
2023/05/16 10:05:05;;;;;;;1.30;0.80;;;22.50;70.80;;;;;;5074625;28;20839;-83
2023/05/16 10:07:33;;;;;;;1.10;0.80;;;22.50;70.80;;;;;;5074322;28;20450;-88
2023/05/16 10:10:01;;;;;;;1.30;0.80;;;22.50;70.80;;;;;;5074061;28;20481;-81
2023/05/16 10:12:31;;;;;;;1.30;0.90;;;22.50;70.70;;;;;;5074228;28;20486;-82
2023/05/16 10:15:00;;;;;;;1.07;0.80;;;22.50;70.60;;;;;;5074083;28;20448;-81
2023/05/16 10:17:30;;;;;;;1.40;1.10;;;22.50;70.50;;;;;;5074581;28;20795;-87
2023/05/16 10:20:00;;;;;;;1.07;0.77;;;22.50;70.40;;;;;;5073943;28;20456;-82
2023/05/16 10:22:28;;;;;;;1.20;1.07;;;22.50;70.40;;;;;;5074072;28;20545;-82
2023/05/16 10:25:04;;;;;;;1.30;0.80;;;22.50;70.50;;;;;;5073971;28;20463;-82
2023/05/16 10:27:31;;;;;;;1.20;0.90;;;22.50;70.50;;;;;;5074025;28;20894;-82
2023/05/16 10:29:59;;;;;;;1.17;0.90;;;22.50;70.50;;;;;;5073989;28;20805;-81
2023/05/16 10:32:28;;;;;;;1.83;0.83;;;22.50;70.50;;;;;;5073843;28;20485;-82
2023/05/16 10:34:55;;;;;;;1.67;0.70;;;22.50;70.50;;;;;;5073895;28;20917;-82
2023/05/16 10:37:23;;;;;;;1.90;0.87;;;22.50;70.40;;;;;;5073794;28;20453;-82
2023/05/16 10:39:50;;;;;;;1.80;0.90;;;22.50;70.40;;;;;;5073574;28;20954;-82
2023/05/16 10:42:19;;;;;;;1.20;0.70;;;22.50;70.30;;;;;;5073738;28;20549;-81
2023/05/16 10:44:45;;;;;;;1.10;0.70;;;22.50;70.20;;;;;;5073686;28;20832;-81
2023/05/16 10:47:12;;;;;;;1.00;0.80;;;22.50;70.10;;;;;;5073803;28;21022;-82
2023/05/16 10:49:42;;;;;;;1.10;0.80;;;22.50;70.20;;;;;;5073528;28;20523;-82
2023/05/16 10:52:09;;;;;;;1.37;1.00;;;22.50;70.20;;;;;;5073383;28;20845;-82
2023/05/16 10:54:38;;;;;;;1.00;0.80;;;22.50;70.40;;;;;;5073571;28;20441;-82
2023/05/16 10:57:07;;;;;;;1.27;1.00;;;22.50;71.40;;;;;;5073375;28;20943;-82
2023/05/16 10:59:41;;;;;;;1.90;1.00;;;22.50;70.60;;;;;;5073320;28;20447;-82
2023/05/16 11:02:22;;;;;;;1.63;0.90;;;22.50;71.40;;;;;;5073426;28;20446;-82
2023/05/16 11:04:51;;;;;;;1.20;0.93;;;22.50;70.70;;;;;;5073485;28;20458;-82
2023/05/16 11:07:19;;;;;;;1.40;0.80;;;22.50;70.60;;;;;;5073320;28;20446;-82
2023/05/16 11:10:02;;;;;;;1.20;0.80;;;22.50;71.50;;;;;;5073097;28;20474;-81
2023/05/16 11:12:37;;;;;;;1.00;0.70;;;22.50;70.80;;;;;;5073395;28;20509;-81
2023/05/16 11:15:18;;;;;;;1.33;0.90;;;22.60;70.80;;;;;;5073365;28;21031;-82
2023/05/16 11:17:45;;;;;;;1.37;0.90;;;22.50;70.50;;;;;;5073359;28;20429;-82
2023/05/16 11:20:27;;;;;;;1.10;0.70;;;22.50;70.60;;;;;;5073117;28;20535;-82
2023/05/16 11:23:22;;;;;;;1.20;0.83;;;22.50;70.60;;;;;;5073217;28;21035;-82
2023/05/16 11:25:53;;;;;;;1.20;0.83;;;22.50;70.80;;;;;;5072464;28;20530;-81
2023/05/16 11:28:21;;;;;;;1.00;0.77;;;22.60;71.90;;;;;;5072927;28;20465;-82
2023/05/16 11:30:49;;;;;;;1.27;0.70;;;22.60;71.10;;;;;;5073093;28;20537;-83
2023/05/16 11:33:17;;;;;;;1.20;0.80;;;22.60;70.90;;;;;;5073101;28;20448;-83
2023/05/16 11:36:00;;;;;;;1.20;0.70;;;22.60;70.80;;;;;;5073003;28;20480;-82
2023/05/16 11:38:29;;;;;;;1.10;0.80;;;22.60;70.60;;;;;;5073096;28;20475;-82
2023/05/16 11:41:02;;;;;;;1.80;1.03;;;22.60;70.70;;;;;;5072951;28;21027;-89
2023/05/16 11:43:29;;;;;;;1.07;0.73;;;22.50;70.50;;;;;;5073231;28;20441;-83
2023/05/16 11:45:57;;;;;;;1.00;0.70;;;22.50;70.40;;;;;;5072938;28;20940;-82
2023/05/16 11:48:24;;;;;;;1.00;0.70;;;22.50;70.60;;;;;;5073003;28;20445;-83
2023/05/16 11:50:53;;;;;;;1.40;0.80;;;22.50;71.50;;;;;;5072929;28;20481;-88
2023/05/16 11:53:22;;;;;;;1.20;0.83;;;22.50;70.80;;;;;;5072938;28;20442;-83
2023/05/16 11:55:51;;;;;;;1.40;1.00;;;22.50;70.80;;;;;;5072946;28;20437;-83
2023/05/16 11:58:18;;;;;;;1.27;0.80;;;22.50;70.90;;;;;;5072712;28;20979;-83
2023/05/16 12:00:49;;;;;;;1.20;0.80;;;22.60;70.90;;;;;;5072871;28;20445;-83
2023/05/16 12:03:16;;;;;;;1.10;0.80;;;22.60;71.20;;;;;;5072965;28;20443;-83
2023/05/16 12:05:53;;;;;;;1.00;0.70;;;22.60;71.10;;;;;;5072792;28;20446;-84
2023/05/16 12:08:21;;;;;;;1.00;0.70;;;22.60;71.20;;;;;;5072853;28;20925;-82
2023/05/16 12:10:50;;;;;;;1.10;0.80;;;22.60;71.00;;;;;;5072513;28;20480;-82
2023/05/16 12:13:17;;;;;;;1.43;0.80;;;22.60;71.00;;;;;;5072701;28;20987;-82
2023/05/16 12:15:44;;;;;;;1.10;0.80;;;22.60;70.90;;;;;;5072763;28;20445;-82
2023/05/16 12:18:12;;;;;;;1.13;0.80;;;22.60;70.90;;;;;;5072672;28;20544;-82
2023/05/16 12:20:39;;;;;;;1.00;0.70;;;22.60;70.80;;;;;;5072587;28;20443;-83
2023/05/16 12:23:12;;;;;;;1.80;1.00;;;22.60;70.80;;;;;;5072701;28;20448;-83
2023/05/16 12:25:42;;;;;;;1.10;0.70;;;22.60;70.80;;;;;;5072645;28;20843;-83
2023/05/16 12:28:13;;;;;;;1.40;0.97;;;22.60;70.50;;;;;;5072480;28;20499;-83
2023/05/16 12:30:41;;;;;;;1.00;0.70;;;22.60;70.60;;;;;;5072504;28;20453;-83
2023/05/16 12:33:10;;;;;;;1.57;0.80;;;22.60;70.60;;;;;;5072554;28;20984;-87
2023/05/16 12:35:39;;;;;;;1.10;0.70;;;22.60;70.50;;;;;;5072566;28;20443;-83
2023/05/16 12:38:08;;;;;;;1.10;0.80;;;22.60;70.50;;;;;;5074617;28;20439;-82
2023/05/16 12:40:38;;;;;;;1.00;0.70;;;22.60;70.30;;;;;;5076047;28;20470;-83
2023/05/16 12:43:05;;;;;;;1.10;0.80;;;22.60;70.60;;;;;;5076081;28;20440;-83
2023/05/16 12:45:33;;;;;;;1.50;0.83;;;22.60;70.30;;;;;;5076013;28;20469;-83
2023/05/16 12:48:05;;;;;;;1.30;0.90;;;22.60;70.80;;;;;;5075945;28;20987;-83
2023/05/16 12:50:33;;;;;;;1.10;0.80;;;22.60;70.80;;;;;;5076097;28;20439;-82
2023/05/16 12:53:01;;;;;;;1.37;0.80;;;22.60;70.60;;;;;;5075826;28;20486;-83